sensor_id;sensor_type;location;lat;lon;timestamp;pressure;altitude;pressure_sealevel;temperature;humidity
43770;BME280;6597;52.218;9.882;2022-09-28T00:02:17;98861.34;;;7.86;100.00
43770;BME280;6597;52.218;9.882;2022-09-28T00:04:45;98858.81;;;7.85;100.00
43770;BME280;6597;52.218;9.882;2022-09-28T00:07:12;98861.63;;;7.80;100.00
43770;BME280;6597;52.218;9.882;2022-09-28T00:09:38;98851.44;;;7.75;100.00
43770;BME280;6597;52.218;9.882;2022-09-28T00:12:05;98850.94;;;7.69;100.00
43770;BME280;6597;52.218;9.882;2022-09-28T00:14:31;98845.03;;;7.65;100.00
43770;BME280;6597;52.218;9.882;2022-09-28T00:16:58;98841.84;;;7.60;100.00
43770;BME280;6597;52.218;9.882;2022-09-28T00:19:25;98847.22;;;7.57;100.00
43770;BME280;6597;52.218;9.882;2022-09-28T00:21:52;98840.56;;;7.52;100.00
43770;BME280;6597;52.218;9.882;2022-09-28T00:24:19;98833.44;;;7.38;100.00
43770;BME280;6597;52.218;9.882;2022-09-28T00:26:47;98837.81;;;7.37;100.00
43770;BME280;6597;52.218;9.882;2022-09-28T00:29:17;98837.22;;;7.32;100.00
43770;BME280;6597;52.218;9.882;2022-09-28T00:31:45;98832.31;;;7.26;100.00
43770;BME280;6597;52.218;9.882;2022-09-28T00:34:12;98834.94;;;7.26;100.00
43770;BME280;6597;52.218;9.882;2022-09-28T00:36:42;98829.81;;;7.25;100.00
43770;BME280;6597;52.218;9.882;2022-09-28T00:39:13;98820.38;;;7.22;100.00
43770;BME280;6597;52.218;9.882;2022-09-28T00:41:40;98818.59;;;7.23;100.00
43770;BME280;6597;52.218;9.882;2022-09-28T00:47:40;98809.16;;;7.20;100.00
43770;BME280;6597;52.218;9.882;2022-09-28T00:50:13;98801.34;;;7.20;100.00
43770;BME280;6597;52.218;9.882;2022-09-28T00:52:44;98800.50;;;7.20;100.00
43770;BME280;6597;52.218;9.882;2022-09-28T00:55:16;98788.38;;;7.18;100.00
43770;BME280;6597;52.218;9.882;2022-09-28T00:57:48;98798.81;;;7.18;100.00
43770;BME280;6597;52.218;9.882;2022-09-28T01:00:16;98786.53;;;7.21;100.00
43770;BME280;6597;52.218;9.882;2022-09-28T01:02:43;98780.47;;;7.20;100.00
43770;BME280;6597;52.218;9.882;2022-09-28T01:05:11;98785.50;;;7.23;100.00
43770;BME280;6597;52.218;9.882;2022-09-28T01:07:39;98783.66;;;7.25;100.00
43770;BME280;6597;52.218;9.882;2022-09-28T01:10:07;98787.88;;;7.28;100.00
43770;BME280;6597;52.218;9.882;2022-09-28T01:12:35;98779.97;;;7.29;100.00
43770;BME280;6597;52.218;9.882;2022-09-28T01:15:03;98784.19;;;7.32;100.00
43770;BME280;6597;52.218;9.882;2022-09-28T01:17:37;98769.28;;;7.34;100.00
43770;BME280;6597;52.218;9.882;2022-09-28T01:20:27;98782.06;;;7.38;100.00
43770;BME280;6597;52.218;9.882;2022-09-28T01:23:33;98769.03;;;7.38;100.00
43770;BME280;6597;52.218;9.882;2022-09-28T01:26:33;98767.34;;;7.37;100.00
43770;BME280;6597;52.218;9.882;2022-09-28T01:29:12;98767.34;;;7.37;100.00
43770;BME280;6597;52.218;9.882;2022-09-28T01:31:45;98767.34;;;7.37;100.00
43770;BME280;6597;52.218;9.882;2022-09-28T01:34:17;98767.25;;;7.39;100.00
43770;BME280;6597;52.218;9.882;2022-09-28T01:36:48;98758.41;;;7.41;100.00
43770;BME280;6597;52.218;9.882;2022-09-28T01:39:20;98758.34;;;7.43;100.00
43770;BME280;6597;52.218;9.882;2022-09-28T01:41:51;98754.78;;;7.44;100.00
43770;BME280;6597;52.218;9.882;2022-09-28T01:44:24;98757.50;;;7.42;100.00
43770;BME280;6597;52.218;9.882;2022-09-28T01:46:53;98753.03;;;7.44;100.00
43770;BME280;6597;52.218;9.882;2022-09-28T01:49:28;98744.28;;;7.45;100.00
43770;BME280;6597;52.218;9.882;2022-09-28T01:52:00;98747.59;;;7.49;100.00
43770;BME280;6597;52.218;9.882;2022-09-28T01:54:32;98739.59;;;7.52;100.00
43770;BME280;6597;52.218;9.882;2022-09-28T01:57:06;98734.19;;;7.55;100.00
43770;BME280;6597;52.218;9.882;2022-09-28T01:59:37;98739.25;;;7.58;100.00
43770;BME280;6597;52.218;9.882;2022-09-28T02:02:11;98736.47;;;7.61;100.00
43770;BME280;6597;52.218;9.882;2022-09-28T02:04:41;98734.78;;;7.60;100.00
43770;BME280;6597;52.218;9.882;2022-09-28T02:07:13;98733.84;;;7.61;100.00
43770;BME280;6597;52.218;9.882;2022-09-28T02:09:44;98726.84;;;7.62;100.00
43770;BME280;6597;52.218;9.882;2022-09-28T02:12:17;98726.84;;;7.62;100.00
43770;BME280;6597;52.218;9.882;2022-09-28T02:14:48;98724.25;;;7.62;100.00
43770;BME280;6597;52.218;9.882;2022-09-28T02:17:19;98719.78;;;7.64;100.00
43770;BME280;6597;52.218;9.882;2022-09-28T02:19:46;98715.56;;;7.61;100.00
43770;BME280;6597;52.218;9.882;2022-09-28T02:22:19;98714.63;;;7.62;100.00
43770;BME280;6597;52.218;9.882;2022-09-28T02:24:53;98717.25;;;7.62;100.00
43770;BME280;6597;52.218;9.882;2022-09-28T02:27:31;98709.59;;;7.59;100.00
43770;BME280;6597;52.218;9.882;2022-09-28T02:29:59;98705.38;;;7.57;100.00
43770;BME280;6597;52.218;9.882;2022-09-28T02:32:27;98708.75;;;7.59;100.00
43770;BME280;6597;52.218;9.882;2022-09-28T02:34:56;98703.69;;;7.56;100.00
43770;BME280;6597;52.218;9.882;2022-09-28T02:37:22;98699.25;;;7.58;100.00
43770;BME280;6597;52.218;9.882;2022-09-28T02:39:49;98705.22;;;7.60;100.00
43770;BME280;6597;52.218;9.882;2022-09-28T02:42:19;98700.06;;;7.58;100.00
43770;BME280;6597;52.218;9.882;2022-09-28T02:44:56;98689.06;;;7.53;100.00
43770;BME280;6597;52.218;9.882;2022-09-28T02:47:35;98700.25;;;7.55;100.00
43770;BME280;6597;52.218;9.882;2022-09-28T02:50:14;98694.28;;;7.53;100.00
43770;BME280;6597;52.218;9.882;2022-09-28T02:53:02;98691.50;;;7.56;100.00
43770;BME280;6597;52.218;9.882;2022-09-28T02:55:42;98696.72;;;7.56;100.00
43770;BME280;6597;52.218;9.882;2022-09-28T02:58:20;98689.91;;;7.54;100.00
43770;BME280;6597;52.218;9.882;2022-09-28T03:00:56;98685.25;;;7.59;100.00
43770;BME280;6597;52.218;9.882;2022-09-28T03:03:30;98686.09;;;7.59;100.00
43770;BME280;6597;52.218;9.882;2022-09-28T03:06:03;98685.25;;;7.59;100.00
43770;BME280;6597;52.218;9.882;2022-09-28T03:08:42;98689.53;;;7.60;100.00
43770;BME280;6597;52.218;9.882;2022-09-28T03:11:16;98686.00;;;7.61;100.00
43770;BME280;6597;52.218;9.882;2022-09-28T03:13:48;98691.13;;;7.62;100.00
43770;BME280;6597;52.218;9.882;2022-09-28T03:16:18;98687.69;;;7.62;100.00
43770;BME280;6597;52.218;9.882;2022-09-28T03:18:47;98676.97;;;7.66;100.00
43770;BME280;6597;52.218;9.882;2022-09-28T03:21:14;98679.50;;;7.68;100.00
43770;BME280;6597;52.218;9.882;2022-09-28T03:23:41;98674.19;;;7.69;100.00
43770;BME280;6597;52.218;9.882;2022-09-28T03:26:10;98668.78;;;7.72;100.00
43770;BME280;6597;52.218;9.882;2022-09-28T03:28:37;98675.69;;;7.73;100.00
43770;BME280;6597;52.218;9.882;2022-09-28T03:31:05;98665.06;;;7.76;100.00
43770;BME280;6597;52.218;9.882;2022-09-28T03:33:33;98661.53;;;7.77;100.00
43770;BME280;6597;52.218;9.882;2022-09-28T03:36:00;98663.22;;;7.78;100.00
43770;BME280;6597;52.218;9.882;2022-09-28T03:38:28;98657.06;;;7.79;100.00
43770;BME280;6597;52.218;9.882;2022-09-28T03:40:56;98658.84;;;7.79;100.00
43770;BME280;6597;52.218;9.882;2022-09-28T03:43:23;98655.28;;;7.80;100.00
43770;BME280;6597;52.218;9.882;2022-09-28T03:45:52;98653.69;;;7.77;100.00
43770;BME280;6597;52.218;9.882;2022-09-28T03:48:22;98658.16;;;7.75;100.00
43770;BME280;6597;52.218;9.882;2022-09-28T03:50:52;98662.63;;;7.73;100.00
43770;BME280;6597;52.218;9.882;2022-09-28T03:53:19;98656.56;;;7.73;100.00
43770;BME280;6597;52.218;9.882;2022-09-28T03:55:46;98656.66;;;7.71;100.00
43770;BME280;6597;52.218;9.882;2022-09-28T03:58:13;98647.91;;;7.72;100.00
43770;BME280;6597;52.218;9.882;2022-09-28T04:00:39;98651.28;;;7.74;100.00
43770;BME280;6597;52.218;9.882;2022-09-28T04:03:06;98647.72;;;7.75;100.00
43770;BME280;6597;52.218;9.882;2022-09-28T04:05:34;98641.56;;;7.76;100.00
43770;BME280;6597;52.218;9.882;2022-09-28T04:08:02;98642.31;;;7.78;100.00
43770;BME280;6597;52.218;9.882;2022-09-28T04:10:28;98639.81;;;7.77;100.00
43770;BME280;6597;52.218;9.882;2022-09-28T04:12:55;98632.06;;;7.75;100.00
43770;BME280;6597;52.218;9.882;2022-09-28T04:15:22;98634.56;;;7.77;100.00
43770;BME280;6597;52.218;9.882;2022-09-28T04:17:49;98631.13;;;7.76;100.00
43770;BME280;6597;52.218;9.882;2022-09-28T04:20:59;98636.34;;;7.76;100.00
43770;BME280;6597;52.218;9.882;2022-09-28T04:23:29;98628.69;;;7.73;100.00
43770;BME280;6597;52.218;9.882;2022-09-28T04:25:57;98625.31;;;7.71;100.00
43770;BME280;6597;52.218;9.882;2022-09-28T04:28:24;98616.75;;;7.69;100.00
43770;BME280;6597;52.218;9.882;2022-09-28T04:31:09;98625.06;;;7.76;100.00
43770;BME280;6597;52.218;9.882;2022-09-28T04:33:37;98627.94;;;7.71;100.00
43770;BME280;6597;52.218;9.882;2022-09-28T04:36:04;98620.00;;;7.73;100.00
43770;BME280;6597;52.218;9.882;2022-09-28T04:38:32;98618.91;;;7.77;100.00
43770;BME280;6597;52.218;9.882;2022-09-28T04:40:59;98608.47;;;7.77;100.00
43770;BME280;6597;52.218;9.882;2022-09-28T04:43:26;98618.91;;;7.77;100.00
43770;BME280;6597;52.218;9.882;2022-09-28T04:45:57;98615.38;;;7.78;100.00
43770;BME280;6597;52.218;9.882;2022-09-28T04:48:24;98617.97;;;7.78;100.00
43770;BME280;6597;52.218;9.882;2022-09-28T04:51:04;98625.81;;;7.78;100.00
43770;BME280;6597;52.218;9.882;2022-09-28T04:53:32;98620.59;;;7.78;100.00
43770;BME280;6597;52.218;9.882;2022-09-28T04:56:01;98616.22;;;7.78;100.00
43770;BME280;6597;52.218;9.882;2022-09-28T04:58:29;98612.75;;;7.78;100.00
43770;BME280;6597;52.218;9.882;2022-09-28T05:00:57;98612.00;;;7.76;100.00
43770;BME280;6597;52.218;9.882;2022-09-28T05:03:44;98620.59;;;7.78;100.00
43770;BME280;6597;52.218;9.882;2022-09-28T05:06:29;98612.66;;;7.79;100.00
43770;BME280;6597;52.218;9.882;2022-09-28T05:09:15;98615.28;;;7.79;100.00
43770;BME280;6597;52.218;9.882;2022-09-28T05:11:42;98618.72;;;7.80;100.00
43770;BME280;6597;52.218;9.882;2022-09-28T05:14:14;98620.69;;;7.76;100.00
43770;BME280;6597;52.218;9.882;2022-09-28T05:16:41;98619.75;;;7.77;100.00
43770;BME280;6597;52.218;9.882;2022-09-28T05:19:27;98621.53;;;7.77;100.00
43770;BME280;6597;52.218;9.882;2022-09-28T05:22:02;98622.28;;;7.79;100.00
43770;BME280;6597;52.218;9.882;2022-09-28T05:24:37;98606.59;;;7.79;100.00
43770;BME280;6597;52.218;9.882;2022-09-28T05:27:04;98620.44;;;7.81;100.00
43770;BME280;6597;52.218;9.882;2022-09-28T05:29:31;98607.44;;;7.79;100.00
43770;BME280;6597;52.218;9.882;2022-09-28T05:32:29;98627.34;;;7.82;100.00
43770;BME280;6597;52.218;9.882;2022-09-28T05:35:15;98611.59;;;7.84;100.00
43770;BME280;6597;52.218;9.882;2022-09-28T05:37:44;98609.72;;;7.86;100.00
43770;BME280;6597;52.218;9.882;2022-09-28T05:40:13;98613.09;;;7.88;100.00
43770;BME280;6597;52.218;9.882;2022-09-28T05:42:40;98609.63;;;7.87;100.00
43770;BME280;6597;52.218;9.882;2022-09-28T05:45:08;98606.84;;;7.90;100.00
43770;BME280;6597;52.218;9.882;2022-09-28T05:47:37;98607.03;;;7.87;100.00
43770;BME280;6597;52.218;9.882;2022-09-28T05:50:05;98606.94;;;7.89;100.00
43770;BME280;6597;52.218;9.882;2022-09-28T05:52:32;98611.41;;;7.87;100.00
43770;BME280;6597;52.218;9.882;2022-09-28T05:54:59;98614.00;;;7.87;100.00
43770;BME280;6597;52.218;9.882;2022-09-28T05:57:29;98609.81;;;7.84;100.00
43770;BME280;6597;52.218;9.882;2022-09-28T05:59:55;98608.38;;;7.78;100.00
43770;BME280;6597;52.218;9.882;2022-09-28T06:02:23;98607.53;;;7.78;100.00
43770;BME280;6597;52.218;9.882;2022-09-28T06:04:50;98606.69;;;7.77;100.00
43770;BME280;6597;52.218;9.882;2022-09-28T06:07:18;98610.97;;;7.78;100.00
43770;BME280;6597;52.218;9.882;2022-09-28T06:09:45;98617.84;;;7.81;100.00
43770;BME280;6597;52.218;9.882;2022-09-28T06:12:33;98615.22;;;7.81;100.00
43770;BME280;6597;52.218;9.882;2022-09-28T06:15:06;98610.00;;;7.81;100.00
43770;BME280;6597;52.218;9.882;2022-09-28T06:17:33;98617.75;;;7.83;100.00
43770;BME280;6597;52.218;9.882;2022-09-28T06:20:18;98616.63;;;7.87;100.00
43770;BME280;6597;52.218;9.882;2022-09-28T06:23:04;98617.38;;;7.89;100.00
43770;BME280;6597;52.218;9.882;2022-09-28T06:25:31;98610.38;;;7.89;100.00
43770;BME280;6597;52.218;9.882;2022-09-28T06:28:01;98618.31;;;7.88;100.00
43770;BME280;6597;52.218;9.882;2022-09-28T06:30:29;98619.06;;;7.90;100.00
43770;BME280;6597;52.218;9.882;2022-09-28T06:32:57;98623.44;;;7.89;100.00
43770;BME280;6597;52.218;9.882;2022-09-28T06:35:26;98625.13;;;7.90;100.00
43770;BME280;6597;52.218;9.882;2022-09-28T06:37:54;98624.09;;;7.93;100.00
43770;BME280;6597;52.218;9.882;2022-09-28T06:40:22;98622.59;;;7.89;100.00
43770;BME280;6597;52.218;9.882;2022-09-28T06:42:56;98632.31;;;7.87;100.00
43770;BME280;6597;52.218;9.882;2022-09-28T06:45:49;98627.25;;;7.84;100.00
43770;BME280;6597;52.218;9.882;2022-09-28T06:48:39;98627.44;;;7.80;100.00
43770;BME280;6597;52.218;9.882;2022-09-28T06:51:12;98632.66;;;7.80;100.00
43770;BME280;6597;52.218;9.882;2022-09-28T06:53:52;98622.34;;;7.77;100.00
43770;BME280;6597;52.218;9.882;2022-09-28T06:56:35;98635.75;;;7.87;100.00
43770;BME280;6597;52.218;9.882;2022-09-28T06:59:02;98634.81;;;7.88;100.00
43770;BME280;6597;52.218;9.882;2022-09-28T07:01:30;98641.38;;;7.95;100.00
43770;BME280;6597;52.218;9.882;2022-09-28T07:04:19;98640.25;;;7.99;100.00
43770;BME280;6597;52.218;9.882;2022-09-28T07:07:04;98640.91;;;8.03;100.00
43770;BME280;6597;52.218;9.882;2022-09-28T07:09:43;98646.13;;;8.03;100.00
43770;BME280;6597;52.218;9.882;2022-09-28T07:12:20;98646.97;;;8.03;100.00
43770;BME280;6597;52.218;9.882;2022-09-28T07:14:58;98645.22;;;8.04;100.00
43770;BME280;6597;52.218;9.882;2022-09-28T07:17:28;98645.22;;;8.04;100.00
43770;BME280;6597;52.218;9.882;2022-09-28T07:19:58;98659.56;;;7.97;100.00
43770;BME280;6597;52.218;9.882;2022-09-28T07:22:25;98651.44;;;7.87;100.00
43770;BME280;6597;52.218;9.882;2022-09-28T07:24:52;98659.84;;;7.76;100.00
43770;BME280;6597;52.218;9.882;2022-09-28T07:27:37;98658.88;;;7.63;100.00
43770;BME280;6597;52.218;9.882;2022-09-28T07:30:17;98669.50;;;7.60;100.00
43770;BME280;6597;52.218;9.882;2022-09-28T07:33:04;98667.81;;;7.59;100.00
43770;BME280;6597;52.218;9.882;2022-09-28T07:35:51;98679.09;;;7.60;100.00
43770;BME280;6597;52.218;9.882;2022-09-28T07:38:20;98675.72;;;7.58;100.00
43770;BME280;6597;52.218;9.882;2022-09-28T07:40:47;98677.69;;;7.54;100.00
43770;BME280;6597;52.218;9.882;2022-09-28T07:43:47;98692.69;;;7.51;100.00
43770;BME280;6597;52.218;9.882;2022-09-28T07:46:15;98683.16;;;7.49;100.00
43770;BME280;6597;52.218;9.882;2022-09-28T07:48:51;98690.91;;;7.51;100.00
43770;BME280;6597;52.218;9.882;2022-09-28T07:51:23;98689.91;;;7.54;100.00
43770;BME280;6597;52.218;9.882;2022-09-28T07:54:00;98698.56;;;7.54;100.00
43770;BME280;6597;52.218;9.882;2022-09-28T07:56:38;98685.84;;;7.48;100.00
43770;BME280;6597;52.218;9.882;2022-09-28T07:59:20;98711.38;;;7.59;100.00
43770;BME280;6597;52.218;9.882;2022-09-28T08:02:05;98704.78;;;7.67;100.00
43770;BME280;6597;52.218;9.882;2022-09-28T08:04:33;98708.81;;;7.73;100.00
43770;BME280;6597;52.218;9.882;2022-09-28T08:07:00;98712.94;;;7.77;100.00
43770;BME280;6597;52.218;9.882;2022-09-28T08:09:27;98711.91;;;7.79;100.00
43770;BME280;6597;52.218;9.882;2022-09-28T08:12:13;98721.28;;;7.84;100.00
43770;BME280;6597;52.218;9.882;2022-09-28T08:14:44;98708.91;;;7.87;100.00
43770;BME280;6597;52.218;9.882;2022-09-28T08:17:29;98715.63;;;7.91;100.00
43770;BME280;6597;52.218;9.882;2022-09-28T08:20:00;98717.41;;;7.91;100.00
43770;BME280;6597;52.218;9.882;2022-09-28T08:22:43;98726.66;;;7.96;100.00
43770;BME280;6597;52.218;9.882;2022-09-28T08:25:10;98729.09;;;7.99;100.00
43770;BME280;6597;52.218;9.882;2022-09-28T08:27:37;98728.25;;;7.99;100.00
43770;BME280;6597;52.218;9.882;2022-09-28T08:30:05;98734.41;;;7.98;100.00
43770;BME280;6597;52.218;9.882;2022-09-28T08:33:04;98731.53;;;8.02;100.00
43770;BME280;6597;52.218;9.882;2022-09-28T08:35:42;98725.94;;;8.08;100.00
43770;BME280;6597;52.218;9.882;2022-09-28T08:38:13;98731.00;;;8.11;100.00
43770;BME280;6597;52.218;9.882;2022-09-28T08:41:01;98738.91;;;8.26;100.00
43770;BME280;6597;52.218;9.882;2022-09-28T08:44:14;98745.78;;;8.42;100.00
43770;BME280;6597;52.218;9.882;2022-09-28T08:47:17;98736.69;;;8.64;100.00
43770;BME280;6597;52.218;9.882;2022-09-28T08:50:25;98749.63;;;8.81;100.00
43770;BME280;6597;52.218;9.882;2022-09-28T08:53:29;98745.50;;;8.91;100.00
43770;BME280;6597;52.218;9.882;2022-09-28T08:56:20;98756.63;;;8.95;100.00
43770;BME280;6597;52.218;9.882;2022-09-28T08:58:53;98752.72;;;8.88;100.00
43770;BME280;6597;52.218;9.882;2022-09-28T09:01:25;98764.81;;;8.74;100.00
43770;BME280;6597;52.218;9.882;2022-09-28T09:03:54;98756.41;;;8.69;100.00
43770;BME280;6597;52.218;9.882;2022-09-28T09:07:03;98761.72;;;8.68;100.00
43770;BME280;6597;52.218;9.882;2022-09-28T09:09:51;98759.38;;;8.63;100.00
43770;BME280;6597;52.218;9.882;2022-09-28T09:12:28;98766.69;;;8.72;100.00
43770;BME280;6597;52.218;9.882;2022-09-28T09:15:18;98768.69;;;8.83;100.00
43770;BME280;6597;52.218;9.882;2022-09-28T09:17:58;98772.44;;;8.93;100.00
43770;BME280;6597;52.218;9.882;2022-09-28T09:20:41;98774.28;;;8.91;100.00
43770;BME280;6597;52.218;9.882;2022-09-28T09:23:34;98773.53;;;8.89;100.00
43770;BME280;6597;52.218;9.882;2022-09-28T09:26:12;98777.28;;;8.85;100.00
43770;BME280;6597;52.218;9.882;2022-09-28T09:28:53;98771.06;;;8.72;100.00
43770;BME280;6597;52.218;9.882;2022-09-28T09:31:42;98779.56;;;8.76;100.00
43770;BME280;6597;52.218;9.882;2022-09-28T09:34:41;98785.31;;;8.82;100.00
43770;BME280;6597;52.218;9.882;2022-09-28T09:37:44;98783.34;;;8.86;100.00
43770;BME280;6597;52.218;9.882;2022-09-28T09:40:51;98787.84;;;8.98;100.00
43770;BME280;6597;52.218;9.882;2022-09-28T09:44:04;98793.22;;;9.11;100.00
43770;BME280;6597;52.218;9.882;2022-09-28T09:47:02;98789.38;;;9.30;100.00
43770;BME280;6597;52.218;9.882;2022-09-28T09:49:54;98788.78;;;9.54;100.00
43770;BME280;6597;52.218;9.882;2022-09-28T09:52:30;98806.25;;;9.67;100.00
43770;BME280;6597;52.218;9.882;2022-09-28T09:55:02;98800.47;;;9.77;100.00
43770;BME280;6597;52.218;9.882;2022-09-28T09:57:45;98803.84;;;9.79;100.00
43770;BME280;6597;52.218;9.882;2022-09-28T10:00:31;98803.25;;;9.74;100.00
43770;BME280;6597;52.218;9.882;2022-09-28T10:03:16;98815.34;;;9.76;100.00
43770;BME280;6597;52.218;9.882;2022-09-28T10:05:49;98809.34;;;9.74;100.00
43770;BME280;6597;52.218;9.882;2022-09-28T10:08:18;98809.34;;;9.74;100.00
43770;BME280;6597;52.218;9.882;2022-09-28T10:10:50;98817.69;;;9.66;100.00
43770;BME280;6597;52.218;9.882;2022-09-28T10:13:19;98817.22;;;9.60;100.00
43770;BME280;6597;52.218;9.882;2022-09-28T10:15:48;98818.72;;;9.64;100.00
43770;BME280;6597;52.218;9.882;2022-09-28T10:18:31;98822.19;;;9.64;100.00
43770;BME280;6597;52.218;9.882;2022-09-28T10:21:19;98822.19;;;9.79;100.00
43770;BME280;6597;52.218;9.882;2022-09-28T10:23:56;98825.69;;;9.92;100.00
43770;BME280;6597;52.218;9.882;2022-09-28T10:26:30;98813.59;;;10.04;100.00
43770;BME280;6597;52.218;9.882;2022-09-28T10:29:01;98814.06;;;10.10;98.46
43770;BME280;6597;52.218;9.882;2022-09-28T10:31:38;98823.22;;;10.17;97.82
43770;BME280;6597;52.218;9.882;2022-09-28T10:34:27;98821.19;;;10.35;93.88
43770;BME280;6597;52.218;9.882;2022-09-28T10:36:57;98824.53;;;10.64;95.64
43770;BME280;6597;52.218;9.882;2022-09-28T10:39:33;98827.13;;;11.04;95.27
43770;BME280;6597;52.218;9.882;2022-09-28T10:42:05;98825.97;;;11.33;89.67
43770;BME280;6597;52.218;9.882;2022-09-28T10:44:37;98825.13;;;11.83;88.20
43770;BME280;6597;52.218;9.882;2022-09-28T10:47:22;98823.72;;;12.51;80.98
43770;BME280;6597;52.218;9.882;2022-09-28T10:49:50;98828.28;;;12.84;77.70
43770;BME280;6597;52.218;9.882;2022-09-28T10:52:36;98827.47;;;12.95;78.63
43770;BME280;6597;52.218;9.882;2022-09-28T10:55:24;98828.47;;;13.05;78.63
43770;BME280;6597;52.218;9.882;2022-09-28T10:57:51;98844.22;;;12.94;79.90
43770;BME280;6597;52.218;9.882;2022-09-28T11:00:33;98837.94;;;12.49;79.01
43770;BME280;6597;52.218;9.882;2022-09-28T11:03:46;98841.53;;;12.24;82.12
43770;BME280;6597;52.218;9.882;2022-09-28T11:06:23;98842.13;;;12.03;84.01
43770;BME280;6597;52.218;9.882;2022-09-28T11:08:51;98838.63;;;12.03;82.42
43770;BME280;6597;52.218;9.882;2022-09-28T11:11:18;98843.47;;;12.09;83.07
43770;BME280;6597;52.218;9.882;2022-09-28T11:13:51;98839.78;;;12.11;83.68
43770;BME280;6597;52.218;9.882;2022-09-28T11:16:26;98852.66;;;12.03;83.59
43770;BME280;6597;52.218;9.882;2022-09-28T11:18:56;98847.28;;;11.92;81.81
43770;BME280;6597;52.218;9.882;2022-09-28T11:21:25;98851.31;;;11.72;81.51
43770;BME280;6597;52.218;9.882;2022-09-28T11:24:03;98845.22;;;11.34;84.40
43770;BME280;6597;52.218;9.882;2022-09-28T11:26:37;98850.25;;;11.11;85.88
43770;BME280;6597;52.218;9.882;2022-09-28T11:29:18;98847.59;;;10.99;86.73
43770;BME280;6597;52.218;9.882;2022-09-28T11:31:59;98851.38;;;10.95;87.13
43770;BME280;6597;52.218;9.882;2022-09-28T11:34:33;98850.66;;;11.05;87.05
43770;BME280;6597;52.218;9.882;2022-09-28T11:37:14;98846.16;;;11.33;86.37
43770;BME280;6597;52.218;9.882;2022-09-28T11:39:51;98850.25;;;11.88;82.42
43770;BME280;6597;52.218;9.882;2022-09-28T11:42:27;98846.84;;;12.35;79.91
43770;BME280;6597;52.218;9.882;2022-09-28T11:45:03;98850.19;;;12.85;74.44
43770;BME280;6597;52.218;9.882;2022-09-28T11:47:46;98853.38;;;13.12;72.12
43770;BME280;6597;52.218;9.882;2022-09-28T11:50:23;98848.19;;;13.57;72.06
43770;BME280;6597;52.218;9.882;2022-09-28T11:52:58;98856.97;;;13.68;68.50
43770;BME280;6597;52.218;9.882;2022-09-28T11:55:31;98850.59;;;14.05;66.37
43770;BME280;6597;52.218;9.882;2022-09-28T11:58:05;98853.16;;;14.49;63.52
43770;BME280;6597;52.218;9.882;2022-09-28T12:00:38;98851.25;;;14.40;62.70
43770;BME280;6597;52.218;9.882;2022-09-28T12:03:11;98859.47;;;14.04;65.53
43770;BME280;6597;52.218;9.882;2022-09-28T12:05:44;98860.09;;;13.74;66.59
43770;BME280;6597;52.218;9.882;2022-09-28T12:08:16;98869.03;;;13.37;67.95
43770;BME280;6597;52.218;9.882;2022-09-28T12:11:08;98865.06;;;12.97;67.97
43770;BME280;6597;52.218;9.882;2022-09-28T12:13:57;98870.03;;;12.77;71.64
43770;BME280;6597;52.218;9.882;2022-09-28T12:16:28;98865.28;;;13.29;70.37
43770;BME280;6597;52.218;9.882;2022-09-28T12:19:00;98877.69;;;13.95;67.53
43770;BME280;6597;52.218;9.882;2022-09-28T12:21:36;98871.53;;;14.51;67.98
43770;BME280;6597;52.218;9.882;2022-09-28T12:24:12;98871.25;;;14.65;63.52
43770;BME280;6597;52.218;9.882;2022-09-28T12:26:44;98871.66;;;14.38;64.61
43770;BME280;6597;52.218;9.882;2022-09-28T12:29:14;98876.97;;;14.16;65.20
43770;BME280;6597;52.218;9.882;2022-09-28T12:31:52;98869.56;;;13.76;63.61
43770;BME280;6597;52.218;9.882;2022-09-28T12:34:22;98868.94;;;13.50;66.61
43770;BME280;6597;52.218;9.882;2022-09-28T12:37:00;98869.16;;;13.36;69.49
43770;BME280;6597;52.218;9.882;2022-09-28T12:39:41;98861.69;;;13.30;68.57
43770;BME280;6597;52.218;9.882;2022-09-28T12:42:23;98863.91;;;13.12;68.04
43770;BME280;6597;52.218;9.882;2022-09-28T12:45:08;98872.31;;;12.82;69.38
43770;BME280;6597;52.218;9.882;2022-09-28T12:48:08;98874.22;;;12.56;70.67
43770;BME280;6597;52.218;9.882;2022-09-28T12:50:39;98882.44;;;12.28;73.01
43770;BME280;6597;52.218;9.882;2022-09-28T12:53:24;98888.59;;;12.03;74.32
43770;BME280;6597;52.218;9.882;2022-09-28T12:56:01;98891.38;;;11.89;76.38
43770;BME280;6597;52.218;9.882;2022-09-28T12:58:45;98894.38;;;11.70;76.20
43770;BME280;6597;52.218;9.882;2022-09-28T13:01:36;98886.09;;;11.63;77.11
43770;BME280;6597;52.218;9.882;2022-09-28T13:04:23;98886.63;;;11.68;77.81
43770;BME280;6597;52.218;9.882;2022-09-28T13:07:01;98890.63;;;11.74;78.90
43770;BME280;6597;52.218;9.882;2022-09-28T13:09:36;98894.09;;;11.74;77.02
43770;BME280;6597;52.218;9.882;2022-09-28T13:12:16;98898.31;;;11.77;75.91
43770;BME280;6597;52.218;9.882;2022-09-28T13:15:07;98898.72;;;11.71;77.30
43770;BME280;6597;52.218;9.882;2022-09-28T13:17:47;98891.34;;;11.63;74.70
43770;BME280;6597;52.218;9.882;2022-09-28T13:20:26;98900.50;;;11.58;76.39
43770;BME280;6597;52.218;9.882;2022-09-28T13:23:09;98893.88;;;11.52;76.18
43770;BME280;6597;52.218;9.882;2022-09-28T13:25:42;98904.28;;;11.53;75.87
43770;BME280;6597;52.218;9.882;2022-09-28T13:28:12;98906.50;;;11.60;76.64
43770;BME280;6597;52.218;9.882;2022-09-28T13:30:42;98905.13;;;11.67;75.47
43770;BME280;6597;52.218;9.882;2022-09-28T13:33:33;98903.25;;;11.81;78.00
43770;BME280;6597;52.218;9.882;2022-09-28T13:36:02;98906.44;;;12.36;76.12
43770;BME280;6597;52.218;9.882;2022-09-28T13:38:46;98897.66;;;12.72;71.64
43770;BME280;6597;52.218;9.882;2022-09-28T13:41:27;98896.78;;;12.95;69.69
43770;BME280;6597;52.218;9.882;2022-09-28T13:44:22;98884.75;;;13.15;69.79
43770;BME280;6597;52.218;9.882;2022-09-28T13:47:15;98893.13;;;13.44;70.10
43770;BME280;6597;52.218;9.882;2022-09-28T13:49:54;98889.44;;;13.80;70.58
43770;BME280;6597;52.218;9.882;2022-09-28T13:52:31;98897.13;;;13.83;68.88
43770;BME280;6597;52.218;9.882;2022-09-28T13:55:20;98904.56;;;13.67;68.94
43770;BME280;6597;52.218;9.882;2022-09-28T13:57:54;98904.41;;;13.46;68.70
43770;BME280;6597;52.218;9.882;2022-09-28T14:00:27;98907.34;;;13.30;67.80